Time;durP1;ratioP1;P1;durP2;ratioP2;P2;SDS_P1;SDS_P2;PMS_P1;PMS_P2;Temp;Humidity;BMP_temperature;BMP_pressure;BME280_temperature;BME280_humidity;BME280_pressure;Samples;Min_cycle;Max_cycle;Signal;HPM_P1;HPM_P2
2022/05/16 00:00:27;;;;;;;14.57;7.45;;;;;;;;;;5071031;28;20144;-68
2022/05/16 00:02:54;;;;;;;12.65;7.65;;;;;;;;;;5071530;28;20037;-68
2022/05/16 00:05:20;;;;;;;14.27;7.60;;;;;;;;;;5071387;28;20032;-67
2022/05/16 00:07:47;;;;;;;22.90;8.55;;;;;;;;;;5073308;28;20033;-67
2022/05/16 00:10:13;;;;;;;14.35;8.25;;;;;;;;;;5073502;28;20100;-69
2022/05/16 00:12:39;;;;;;;14.40;8.48;;;;;;;;;;5069966;28;20116;-67
2022/05/16 00:15:08;;;;;;;19.00;8.43;;;;;;;;;;5072140;28;20475;-67
2022/05/16 00:17:34;;;;;;;14.95;8.02;;;;;;;;;;5072040;28;20087;-67
2022/05/16 00:20:00;;;;;;;18.20;8.77;;;;;;;;;;5071892;28;20031;-68
2022/05/16 00:22:27;;;;;;;15.63;8.20;;;;;;;;;;5072092;28;20028;-69
2022/05/16 00:24:53;;;;;;;17.17;8.73;;;;;;;;;;5071894;28;20420;-73
2022/05/16 00:27:19;;;;;;;16.42;8.20;;;;;;;;;;5071630;28;20503;-70
2022/05/16 00:29:45;;;;;;;14.30;9.05;;;;;;;;;;5070939;28;20081;-71
2022/05/16 00:32:13;;;;;;;13.20;7.32;;;;;;;;;;5071771;28;20087;-71
2022/05/16 00:34:39;;;;;;;15.18;8.10;;;;;;;;;;5071746;28;20020;-68
2022/05/16 00:37:05;;;;;;;14.60;8.07;;;;;;;;;;5071553;28;20052;-68
2022/05/16 00:39:32;;;;;;;13.70;7.25;;;;;;;;;;5071734;28;20103;-69
2022/05/16 00:41:58;;;;;;;9.65;7.03;;;;;;;;;;5055793;28;20380;-68
2022/05/16 00:44:24;;;;;;;19.95;8.57;;;;;;;;;;5060612;28;20420;-69
2022/05/16 00:46:51;;;;;;;12.52;8.80;;;;;;;;;;5071276;28;20043;-68
2022/05/16 00:49:24;;;;;;;16.55;8.65;;;;;;;;;;5071999;28;20020;-72
2022/05/16 00:51:54;;;;;;;;;;;;;;;;;;5072392;28;20426;-69
2022/05/16 00:54:25;;;;;;;13.93;8.50;;;;;;;;;;5071767;28;19916;-72
2022/05/16 00:56:59;;;;;;;16.15;7.97;;;;;;;;;;5071164;28;20063;-69
2022/05/16 00:59:48;;;;;;;15.65;8.25;;;;;;;;;;5062428;28;20037;-68
2022/05/16 01:05:02;;;;;;;13.40;8.68;;;;;;;;;;5051132;28;20049;-68
2022/05/16 01:07:32;;;;;;;15.38;9.07;;;;;;;;;;5051282;28;20032;-66
2022/05/16 01:09:59;;;;;;;12.70;8.25;;;;;;;;;;5056870;28;20556;-68
2022/05/16 01:12:32;;;;;;;11.90;8.60;;;;;;;;;;5069707;28;20032;-67
2022/05/16 01:15:00;;;;;;;16.60;8.98;;;;;;;;;;5058461;28;20499;-68
2022/05/16 01:17:26;;;;;;;14.60;9.10;;;;;;;;;;5055399;28;20531;-68
2022/05/16 01:19:53;;;;;;;19.20;7.85;;;;;;;;;;5055267;28;20068;-68
2022/05/16 01:22:18;;;;;;;13.45;7.63;;;;;;;;;;5055185;28;20036;-71
2022/05/16 01:24:45;;;;;;;10.93;7.55;;;;;;;;;;5055576;28;20041;-70
2022/05/16 01:27:11;;;;;;;11.65;7.15;;;;;;;;;;5055337;28;20108;-69
2022/05/16 01:29:37;;;;;;;12.57;7.88;;;;;;;;;;5055291;28;20102;-69
2022/05/16 01:32:03;;;;;;;14.63;8.50;;;;;;;;;;5054929;28;20029;-70
2022/05/16 01:34:29;;;;;;;16.25;8.70;;;;;;;;;;5054953;28;20028;-69
2022/05/16 01:36:55;;;;;;;17.83;8.63;;;;;;;;;;5054573;28;20479;-69
2022/05/16 01:39:20;;;;;;;25.40;8.88;;;;;;;;;;5054964;28;20040;-68
2022/05/16 01:41:46;;;;;;;12.00;8.13;;;;;;;;;;5055389;28;20424;-70
2022/05/16 01:44:12;;;;;;;16.35;8.30;;;;;;;;;;5057192;28;20472;-73
2022/05/16 01:46:40;;;;;;;12.20;7.95;;;;;;;;;;5068619;28;20062;-72
2022/05/16 01:49:08;;;;;;;20.90;8.43;;;;;;;;;;5057224;28;20041;-73
2022/05/16 01:51:35;;;;;;;19.58;8.52;;;;;;;;;;5063362;28;20021;-73
2022/05/16 01:54:03;;;;;;;12.35;7.15;;;;;;;;;;5054834;28;20063;-72
2022/05/16 01:56:35;;;;;;;10.73;7.68;;;;;;;;;;5054276;28;20123;-76
2022/05/16 01:59:03;;;;;;;13.75;8.77;;;;;;;;;;5054428;28;20064;-68
2022/05/16 02:01:29;;;;;;;14.10;8.18;;;;;;;;;;5054760;28;20091;-75
2022/05/16 02:03:56;;;;;;;12.02;8.35;;;;;;;;;;5054986;28;20025;-73
2022/05/16 02:06:22;;;;;;;11.15;8.50;;;;;;;;;;5054625;28;20032;-73
2022/05/16 02:08:48;;;;;;;15.95;9.25;;;;;;;;;;5054506;28;20112;-69
2022/05/16 02:11:15;;;;;;;13.25;8.88;;;;;;;;;;5054387;28;20021;-69
2022/05/16 02:13:42;;;;;;;14.43;9.18;;;;;;;;;;5054238;28;20158;-68
2022/05/16 02:16:09;;;;;;;16.50;8.57;;;;;;;;;;5054610;28;20543;-68
2022/05/16 02:18:36;;;;;;;11.98;8.55;;;;;;;;;;5054202;28;20108;-71
2022/05/16 02:26:33;;;;;;;12.75;7.75;;;;;;;;;;5060441;28;20051;-69
2022/05/16 02:28:59;;;;;;;15.40;8.18;;;;;;;;;;5058683;28;20503;-69
2022/05/16 02:31:25;;;;;;;12.27;8.27;;;;;;;;;;5054165;28;20044;-69
2022/05/16 02:33:50;;;;;;;14.70;8.13;;;;;;;;;;5056204;28;20025;-72
2022/05/16 02:36:17;;;;;;;13.18;8.60;;;;;;;;;;5062559;28;20037;-69
2022/05/16 02:38:43;;;;;;;14.10;8.82;;;;;;;;;;5053454;28;20400;-68
2022/05/16 02:41:09;;;;;;;13.68;7.55;;;;;;;;;;5053496;28;20460;-69
2022/05/16 02:43:35;;;;;;;9.30;7.82;;;;;;;;;;5053956;28;20074;-68
2022/05/16 02:46:01;;;;;;;9.93;7.22;;;;;;;;;;5053609;28;20064;-69
2022/05/16 02:48:27;;;;;;;13.85;8.07;;;;;;;;;;5053594;28;20087;-69
2022/05/16 02:50:52;;;;;;;11.95;8.18;;;;;;;;;;5053701;28;20060;-68
2022/05/16 02:53:18;;;;;;;14.13;7.85;;;;;;;;;;5053468;28;20029;-71
2022/05/16 02:55:44;;;;;;;15.77;8.75;;;;;;;;;;5051931;28;20048;-67
2022/05/16 02:58:10;;;;;;;14.05;7.95;;;;;;;;;;5053428;28;20037;-70
2022/05/16 03:00:38;;;;;;;13.38;8.13;;;;;;;;;;5053326;28;20029;-67
2022/05/16 03:03:04;;;;;;;11.10;8.07;;;;;;;;;;5053269;28;20033;-67
2022/05/16 03:05:30;;;;;;;11.52;8.30;;;;;;;;;;5053347;28;20068;-69
2022/05/16 03:07:55;;;;;;;12.85;8.32;;;;;;;;;;5053075;28;20021;-68
2022/05/16 03:10:22;;;;;;;10.23;7.80;;;;;;;;;;5053422;28;20036;-69
2022/05/16 03:12:49;;;;;;;14.40;9.18;;;;;;;;;;5055540;28;20059;-68
2022/05/16 03:15:16;;;;;;;10.80;7.82;;;;;;;;;;5062015;28;20063;-70
2022/05/16 03:17:42;;;;;;;11.60;8.20;;;;;;;;;;5057786;28;20100;-68
2022/05/16 03:20:11;;;;;;;10.52;8.45;;;;;;;;;;5058992;28;20057;-68
2022/05/16 03:22:37;;;;;;;11.50;8.15;;;;;;;;;;5052511;28;20446;-68
2022/05/16 03:25:03;;;;;;;19.38;9.02;;;;;;;;;;5052374;28;20029;-69
2022/05/16 03:27:29;;;;;;;16.02;9.13;;;;;;;;;;5051121;28;20032;-69
2022/05/16 03:29:55;;;;;;;19.70;8.55;;;;;;;;;;5051960;28;20379;-69
2022/05/16 03:32:21;;;;;;;14.45;8.73;;;;;;;;;;5052254;28;20328;-69
2022/05/16 03:34:51;;;;;;;12.82;8.35;;;;;;;;;;5052326;28;20029;-68
2022/05/16 03:37:17;;;;;;;13.90;8.82;;;;;;;;;;5052451;28;20100;-69
2022/05/16 03:42:31;;;;;;;14.23;8.93;;;;;;;;;;5052366;28;20025;-74
2022/05/16 03:44:58;;;;;;;9.75;8.52;;;;;;;;;;5051895;28;20064;-75
2022/05/16 03:47:25;;;;;;;11.35;8.50;;;;;;;;;;5051789;28;20078;-73
2022/05/16 03:49:51;;;;;;;14.57;8.73;;;;;;;;;;5052117;28;20048;-71
2022/05/16 03:52:17;;;;;;;14.38;9.05;;;;;;;;;;5052074;28;20112;-68
2022/05/16 03:54:43;;;;;;;11.73;7.97;;;;;;;;;;5052203;28;20544;-69
2022/05/16 03:57:09;;;;;;;15.30;9.15;;;;;;;;;;5051949;28;20052;-68
2022/05/16 03:59:35;;;;;;;13.73;8.63;;;;;;;;;;5052006;28;20033;-68
2022/05/16 04:02:02;;;;;;;16.58;9.18;;;;;;;;;;5051712;28;20033;-69
2022/05/16 04:04:28;;;;;;;15.85;8.88;;;;;;;;;;5051771;28;20021;-71
2022/05/16 04:06:54;;;;;;;17.48;8.73;;;;;;;;;;5051577;28;20043;-68
2022/05/16 04:09:20;;;;;;;11.00;8.50;;;;;;;;;;5051572;28;20021;-72
2022/05/16 04:11:46;;;;;;;17.30;9.18;;;;;;;;;;5051833;28;20040;-68
2022/05/16 04:14:12;;;;;;;10.57;8.45;;;;;;;;;;5051927;28;20132;-70
2022/05/16 04:16:38;;;;;;;16.98;9.55;;;;;;;;;;5065396;28;20044;-68
2022/05/16 04:19:09;;;;;;;14.68;8.85;;;;;;;;;;5070120;28;20028;-70
2022/05/16 04:21:39;;;;;;;18.95;9.40;;;;;;;;;;5070244;28;20060;-67
2022/05/16 04:24:06;;;;;;;22.65;9.40;;;;;;;;;;5070412;28;20031;-69
2022/05/16 04:26:32;;;;;;;18.60;9.05;;;;;;;;;;5070097;28;20423;-70
2022/05/16 04:28:58;;;;;;;16.52;8.75;;;;;;;;;;5070284;28;20467;-68
2022/05/16 04:31:25;;;;;;;15.23;9.30;;;;;;;;;;5068998;28;20037;-71
2022/05/16 04:33:51;;;;;;;12.90;8.93;;;;;;;;;;5070641;28;20379;-72
2022/05/16 04:36:16;;;;;;;18.38;9.43;;;;;;;;;;5072200;28;20043;-69
2022/05/16 04:38:42;;;;;;;21.40;9.30;;;;;;;;;;5071970;28;20024;-68
2022/05/16 04:43:53;;;;;;;20.08;9.18;;;;;;;;;;5071672;28;20058;-69
2022/05/16 04:46:19;;;;;;;15.05;8.18;;;;;;;;;;5071877;28;20425;-69
2022/05/16 04:48:45;;;;;;;13.38;8.15;;;;;;;;;;5072155;28;20036;-69
2022/05/16 04:51:11;;;;;;;12.07;7.40;;;;;;;;;;5072274;28;20027;-67
2022/05/16 04:53:38;;;;;;;17.30;8.13;;;;;;;;;;5072257;28;20169;-70
2022/05/16 04:56:05;;;;;;;10.85;8.13;;;;;;;;;;5071840;28;20428;-68
2022/05/16 04:58:33;;;;;;;17.17;8.30;;;;;;;;;;5071618;28;20162;-70
2022/05/16 05:01:00;;;;;;;13.63;8.40;;;;;;;;;;5071727;28;20020;-67
2022/05/16 05:03:26;;;;;;;16.10;9.82;;;;;;;;;;5071981;28;20029;-76
2022/05/16 05:05:52;;;;;;;12.52;7.25;;;;;;;;;;5071807;28;20040;-77
2022/05/16 05:08:18;;;;;;;11.05;8.05;;;;;;;;;;5069176;28;20037;-76
2022/05/16 05:16:17;;;;;;;13.05;7.90;;;;;;;;;;5057037;28;20380;-79
2022/05/16 05:18:44;;;;;;;15.43;7.28;;;;;;;;;;5062876;28;20025;-74
2022/05/16 05:21:10;;;;;;;24.10;8.98;;;;;;;;;;5060887;28;20136;-76
2022/05/16 05:23:38;;;;;;;16.05;8.88;;;;;;;;;;5053884;28;20044;-75
2022/05/16 05:26:05;;;;;;;12.32;8.40;;;;;;;;;;5063342;28;20038;-75
2022/05/16 05:28:33;;;;;;;15.45;8.45;;;;;;;;;;5071343;28;20438;-76
2022/05/16 05:30:59;;;;;;;12.65;7.60;;;;;;;;;;5067273;28;20031;-77
2022/05/16 05:33:25;;;;;;;12.20;7.78;;;;;;;;;;5066782;28;20033;-76
2022/05/16 05:35:51;;;;;;;10.75;7.18;;;;;;;;;;5071450;28;20039;-78
2022/05/16 05:38:18;;;;;;;13.57;7.78;;;;;;;;;;5071262;28;20036;-77
2022/05/16 05:40:45;;;;;;;15.10;8.77;;;;;;;;;;5071632;28;20044;-77
2022/05/16 05:43:12;;;;;;;16.88;8.50;;;;;;;;;;5071266;28;20043;-77
2022/05/16 05:45:38;;;;;;;16.60;7.97;;;;;;;;;;5069783;28;20039;-77
2022/05/16 05:48:05;;;;;;;10.02;7.72;;;;;;;;;;5070015;28;20115;-77
2022/05/16 05:50:31;;;;;;;15.00;7.22;;;;;;;;;;5071234;28;20036;-77
2022/05/16 05:52:58;;;;;;;9.30;6.90;;;;;;;;;;5071149;28;20166;-79
2022/05/16 05:55:23;;;;;;;18.23;8.02;;;;;;;;;;5074807;28;20029;-78
2022/05/16 05:57:49;;;;;;;19.92;9.93;;;;;;;;;;5074560;28;20597;-77
2022/05/16 06:00:16;;;;;;;10.93;6.72;;;;;;;;;;5074659;28;20066;-78
2022/05/16 06:02:42;;;;;;;12.20;6.50;;;;;;;;;;5074360;28;20069;-76
2022/05/16 06:05:10;;;;;;;10.75;6.00;;;;;;;;;;5074493;28;20035;-75
2022/05/16 06:07:37;;;;;;;11.57;6.53;;;;;;;;;;5074435;28;20036;-76
2022/05/16 06:10:04;;;;;;;13.00;6.30;;;;;;;;;;5074534;28;20029;-76
2022/05/16 06:12:31;;;;;;;9.02;6.10;;;;;;;;;;5074759;28;20033;-79
2022/05/16 06:14:56;;;;;;;11.60;6.30;;;;;;;;;;5074499;28;20433;-78
2022/05/16 06:17:23;;;;;;;9.57;5.70;;;;;;;;;;5074236;28;20055;-81
2022/05/16 06:19:48;;;;;;;17.10;6.07;;;;;;;;;;5074465;28;20025;-79
2022/05/16 06:22:15;;;;;;;7.40;5.40;;;;;;;;;;5074200;28;20043;-79
2022/05/16 06:27:28;;;;;;;11.80;6.20;;;;;;;;;;5073687;28;20501;-82
2022/05/16 06:29:58;;;;;;;12.07;6.15;;;;;;;;;;5073920;28;20032;-76
2022/05/16 06:32:24;;;;;;;16.52;6.85;;;;;;;;;;5074182;28;20063;-82
2022/05/16 06:34:51;;;;;;;8.50;5.90;;;;;;;;;;5074491;28;20471;-80
2022/05/16 06:37:18;;;;;;;11.10;6.03;;;;;;;;;;5074223;28;20037;-75
2022/05/16 06:39:45;;;;;;;7.10;5.82;;;;;;;;;;5074386;28;20111;-78
2022/05/16 06:42:11;;;;;;;11.05;6.68;;;;;;;;;;5073364;28;20487;-80
2022/05/16 06:44:38;;;;;;;13.07;5.65;;;;;;;;;;5071993;28;20036;-79
2022/05/16 06:47:05;;;;;;;10.85;5.15;;;;;;;;;;5056054;28;20037;-81
2022/05/16 06:49:31;;;;;;;10.10;4.65;;;;;;;;;;5053991;28;20025;-79
2022/05/16 06:51:57;;;;;;;6.60;4.55;;;;;;;;;;5053856;28;20033;-79
2022/05/16 06:54:23;;;;;;;7.32;4.50;;;;;;;;;;5053440;28;20483;-74
2022/05/16 06:56:49;;;;;;;7.43;5.18;;;;;;;;;;5060582;28;20048;-78
2022/05/16 06:59:15;;;;;;;10.35;4.85;;;;;;;;;;5055777;28;20063;-76
2022/05/16 07:01:41;;;;;;;8.18;5.22;;;;;;;;;;5053554;28;20087;-76
2022/05/16 07:04:06;;;;;;;7.63;4.60;;;;;;;;;;5053345;28;20029;-77
2022/05/16 07:06:32;;;;;;;6.00;4.72;;;;;;;;;;5052548;28;20041;-74
2022/05/16 07:08:58;;;;;;;10.60;4.93;;;;;;;;;;5053190;28;20108;-80
2022/05/16 07:11:24;;;;;;;7.00;4.40;;;;;;;;;;5053455;28;20388;-78
2022/05/16 07:13:50;;;;;;;13.88;5.43;;;;;;;;;;5053513;28;20083;-79
2022/05/16 07:16:16;;;;;;;7.25;4.65;;;;;;;;;;5053539;28;20043;-77
2022/05/16 07:18:43;;;;;;;5.25;4.13;;;;;;;;;;5052987;28;20021;-74
2022/05/16 07:21:08;;;;;;;8.90;4.43;;;;;;;;;;5053150;28;20040;-77
2022/05/16 07:23:34;;;;;;;6.35;4.35;;;;;;;;;;5053187;28;20024;-78
2022/05/16 07:28:48;;;;;;;11.35;5.10;;;;;;;;;;5053011;28;20033;-79
2022/05/16 07:31:13;;;;;;;6.97;5.30;;;;;;;;;;5053128;28;20025;-77
2022/05/16 07:33:39;;;;;;;10.98;4.85;;;;;;;;;;5052607;28;20041;-79
2022/05/16 07:36:05;;;;;;;8.95;5.03;;;;;;;;;;5052916;28;20510;-79
2022/05/16 07:38:31;;;;;;;8.32;4.53;;;;;;;;;;5052609;28;20048;-79
2022/05/16 07:40:58;;;;;;;11.05;5.05;;;;;;;;;;5052544;28;20021;-77
2022/05/16 07:43:25;;;;;;;6.68;5.05;;;;;;;;;;5052676;28;20040;-79
2022/05/16 07:45:51;;;;;;;9.15;5.32;;;;;;;;;;5052213;28;20471;-81
2022/05/16 07:48:17;;;;;;;10.55;5.10;;;;;;;;;;5052681;28;20048;-79
2022/05/16 07:50:44;;;;;;;6.00;4.40;;;;;;;;;;5051992;28;20018;-78
2022/05/16 07:53:12;;;;;;;7.00;4.95;;;;;;;;;;5051043;28;20058;-79
2022/05/16 07:55:39;;;;;;;7.15;5.13;;;;;;;;;;5052407;28;20163;-76
2022/05/16 07:58:06;;;;;;;9.90;5.38;;;;;;;;;;5052401;28;20029;-79
2022/05/16 08:00:32;;;;;;;5.70;4.65;;;;;;;;;;5052615;28;20086;-76
2022/05/16 08:02:58;;;;;;;9.90;4.93;;;;;;;;;;5052613;28;20387;-78
2022/05/16 08:05:24;;;;;;;9.95;5.13;;;;;;;;;;5052453;28;20017;-79
2022/05/16 08:10:39;;;;;;;9.38;4.93;;;;;;;;;;5051792;28;20037;-80
2022/05/16 08:13:09;;;;;;;7.22;4.53;;;;;;;;;;5052093;28;20043;-76
2022/05/16 08:15:37;;;;;;;6.35;4.65;;;;;;;;;;5052022;28;20033;-77
2022/05/16 08:18:05;;;;;;;6.95;4.47;;;;;;;;;;5052189;28;20037;-78
2022/05/16 08:20:32;;;;;;;9.15;4.70;;;;;;;;;;5051301;28;20024;-79
2022/05/16 08:22:58;;;;;;;6.90;4.75;;;;;;;;;;5052283;28;20124;-76
2022/05/16 08:25:24;;;;;;;9.32;4.80;;;;;;;;;;5052054;28;20037;-79
2022/05/16 08:27:50;;;;;;;8.70;5.13;;;;;;;;;;5052292;28;20028;-79
2022/05/16 08:30:18;;;;;;;6.40;4.80;;;;;;;;;;5052236;28;20102;-79
2022/05/16 08:32:44;;;;;;;9.00;5.05;;;;;;;;;;5050780;28;20091;-76
2022/05/16 08:35:11;;;;;;;9.80;5.50;;;;;;;;;;5052110;28;20028;-77
2022/05/16 08:40:40;;;;;;;8.48;4.97;;;;;;;;;;5051944;28;20036;-78
2022/05/16 08:43:15;;;;;;;7.63;5.03;;;;;;;;;;5051881;28;20040;-80
2022/05/16 08:45:50;;;;;;;6.60;4.95;;;;;;;;;;5051802;28;20405;-79
2022/05/16 08:48:33;;;;;;;9.13;4.22;;;;;;;;;;5051739;28;20037;-76
2022/05/16 08:51:11;;;;;;;7.85;5.00;;;;;;;;;;5051962;28;20029;-78
2022/05/16 08:53:48;;;;;;;8.40;4.00;;;;;;;;;;5051475;28;20087;-76
2022/05/16 08:56:22;;;;;;;5.82;4.45;;;;;;;;;;5051456;28;20037;-77
2022/05/16 08:59:03;;;;;;;10.80;4.55;;;;;;;;;;5058861;28;20039;-78
2022/05/16 09:01:49;;;;;;;8.48;4.80;;;;;;;;;;5070531;28;20036;-76
2022/05/16 09:04:25;;;;;;;11.43;5.03;;;;;;;;;;5070960;28;20077;-80
2022/05/16 09:07:02;;;;;;;10.25;5.05;;;;;;;;;;5071160;28;20452;-79
2022/05/16 09:09:50;;;;;;;11.98;4.75;;;;;;;;;;5070755;28;20528;-78
2022/05/16 09:12:33;;;;;;;5.45;4.10;;;;;;;;;;5070827;28;20044;-78
2022/05/16 09:15:14;;;;;;;7.10;4.15;;;;;;;;;;5070953;28;20032;-81
2022/05/16 09:18:10;;;;;;;9.15;4.60;;;;;;;;;;5070557;28;20431;-77
2022/05/16 09:20:54;;;;;;;7.35;4.50;;;;;;;;;;5071121;28;20134;-77
2022/05/16 09:23:39;;;;;;;5.88;4.55;;;;;;;;;;5070615;28;20475;-78
2022/05/16 09:26:20;;;;;;;9.45;4.40;;;;;;;;;;5069138;28;20187;-79
2022/05/16 09:29:12;;;;;;;7.55;4.40;;;;;;;;;;5071774;28;20529;-81
2022/05/16 09:31:42;;;;;;;9.32;4.20;;;;;;;;;;5059235;28;20132;-78
2022/05/16 09:34:09;;;;;;;8.43;3.80;;;;;;;;;;5054400;28;20570;-79
2022/05/16 09:36:42;;;;;;;6.45;3.67;;;;;;;;;;5054317;28;20056;-79
2022/05/16 09:39:09;;;;;;;;;;;;;;;;;;5055201;28;20063;-79
2022/05/16 09:41:43;;;;;;;11.02;4.00;;;;;;;;;;5054309;28;20272;-81
2022/05/16 09:44:43;;;;;;;11.13;4.38;;;;;;;;;;5054306;28;20562;-79
2022/05/16 09:47:22;;;;;;;5.95;4.03;;;;;;;;;;5042816;28;20131;-81
2022/05/16 09:50:09;;;;;;;6.30;4.35;;;;;;;;;;5054180;28;20460;-77
2022/05/16 09:52:49;;;;;;;7.13;3.60;;;;;;;;;;5054081;28;20033;-78
2022/05/16 09:55:44;;;;;;;5.22;4.05;;;;;;;;;;5053799;28;20044;-81
2022/05/16 09:58:21;;;;;;;11.15;4.63;;;;;;;;;;5051382;28;20041;-83
2022/05/16 10:01:00;;;;;;;6.40;4.10;;;;;;;;;;5052933;28;20037;-82
2022/05/16 10:03:34;;;;;;;5.13;3.78;;;;;;;;;;5054383;28;20044;-77
2022/05/16 10:06:04;;;;;;;5.10;3.85;;;;;;;;;;5054042;28;20075;-79
2022/05/16 10:08:39;;;;;;;7.95;4.07;;;;;;;;;;5054167;28;20387;-78
2022/05/16 10:11:08;;;;;;;7.90;4.80;;;;;;;;;;5054101;28;20176;-78
2022/05/16 10:13:35;;;;;;;6.25;4.00;;;;;;;;;;5053904;28;20124;-76
2022/05/16 10:16:05;;;;;;;4.43;3.92;;;;;;;;;;5052458;28;20021;-78
2022/05/16 10:18:35;;;;;;;9.88;3.67;;;;;;;;;;5054149;28;20033;-78
2022/05/16 10:21:10;;;;;;;8.73;4.20;;;;;;;;;;5053794;28;20037;-77
2022/05/16 10:23:41;;;;;;;5.13;3.90;;;;;;;;;;5053740;28;20472;-77
2022/05/16 10:26:13;;;;;;;6.88;3.75;;;;;;;;;;5054140;28;20033;-77
2022/05/16 10:28:46;;;;;;;8.30;4.68;;;;;;;;;;5053433;28;20422;-77
2022/05/16 10:34:11;;;;;;;;;;;;;;;;;;5054458;28;20037;-78
2022/05/16 10:36:38;;;;;;;5.65;4.03;;;;;;;;;;5053453;28;19916;-78
2022/05/16 10:39:15;;;;;;;7.53;4.15;;;;;;;;;;5052394;28;20388;-78
2022/05/16 10:41:45;;;;;;;7.50;4.45;;;;;;;;;;5053172;28;20476;-77
2022/05/16 10:44:16;;;;;;;6.78;4.32;;;;;;;;;;5052824;28;20029;-76
2022/05/16 10:46:51;;;;;;;5.75;3.90;;;;;;;;;;5052706;28;20029;-81
2022/05/16 10:49:21;;;;;;;8.02;4.13;;;;;;;;;;5053430;28;20033;-80
2022/05/16 10:51:59;;;;;;;7.20;4.03;;;;;;;;;;5053888;28;20029;-80
2022/05/16 10:54:28;;;;;;;4.88;3.95;;;;;;;;;;5053649;28;20025;-80
2022/05/16 10:57:19;;;;;;;11.38;4.25;;;;;;;;;;5053345;28;20049;-79
2022/05/16 11:00:07;;;;;;;7.47;4.00;;;;;;;;;;5054024;28;20116;-80
2022/05/16 11:02:51;;;;;;;5.68;3.97;;;;;;;;;;5053489;28;20375;-78
2022/05/16 11:05:42;;;;;;;8.57;3.85;;;;;;;;;;5053242;28;20045;-79
2022/05/16 11:08:46;;;;;;;6.30;4.22;;;;;;;;;;5053278;28;20087;-77
2022/05/16 11:11:50;;;;;;;7.57;4.03;;;;;;;;;;5053373;28;20130;-78
2022/05/16 11:14:27;;;;;;;9.00;4.47;;;;;;;;;;5010919;28;20064;-79
2022/05/16 11:17:00;;;;;;;6.65;3.97;;;;;;;;;;5048226;28;20151;-77
2022/05/16 11:19:39;;;;;;;4.45;3.55;;;;;;;;;;5067349;28;20029;-75
2022/05/16 11:22:24;;;;;;;9.07;3.85;;;;;;;;;;5068656;28;20475;-73
2022/05/16 11:25:01;;;;;;;5.95;3.65;;;;;;;;;;5071967;28;20087;-78
2022/05/16 11:27:55;;;;;;;6.85;4.05;;;;;;;;;;5072059;28;20043;-75
2022/05/16 11:30:45;;;;;;;5.60;3.58;;;;;;;;;;5072428;28;20067;-76
2022/05/16 11:33:17;;;;;;;8.68;4.00;;;;;;;;;;5063961;28;20082;-76
2022/05/16 11:35:49;;;;;;;5.75;3.88;;;;;;;;;;5056658;28;20028;-76
2022/05/16 11:38:33;;;;;;;4.53;3.60;;;;;;;;;;5053117;28;20395;-74
2022/05/16 11:41:38;;;;;;;7.85;3.97;;;;;;;;;;5072523;28;20118;-75
2022/05/16 11:44:25;;;;;;;6.07;3.75;;;;;;;;;;5077097;28;20048;-77
2022/05/16 11:47:08;;;;;;;8.00;4.00;;;;;;;;;;5090351;28;20119;-75
2022/05/16 11:49:56;;;;;;;7.90;3.88;;;;;;;;;;5052024;28;20498;-75
2022/05/16 11:52:30;;;;;;;4.32;3.80;;;;;;;;;;5050816;28;20033;-74
2022/05/16 12:00:31;;;;;;;5.45;3.80;;;;;;;;;;5068844;28;20036;-76
2022/05/16 12:00:53;;;;;;;9.18;4.30;;;;;;;;;;5060789;28;20029;-74
2022/05/16 12:03:20;;;;;;;8.30;3.90;;;;;;;;;;5067200;28;20072;-74
2022/05/16 12:05:53;;;;;;;6.95;3.95;;;;;;;;;;5059995;28;20555;-73
2022/05/16 12:08:44;;;;;;;8.95;3.53;;;;;;;;;;5051727;28;20052;-73
2022/05/16 12:11:16;;;;;;;10.40;3.53;;;;;;;;;;5052095;28;20047;-75
2022/05/16 12:14:21;;;;;;;6.85;3.60;;;;;;;;;;5065654;28;20059;-73
2022/05/16 12:16:53;;;;;;;6.07;3.60;;;;;;;;;;5071227;28;20065;-81
2022/05/16 12:19:34;;;;;;;8.57;3.90;;;;;;;;;;5071715;28;20580;-76
2022/05/16 12:22:05;;;;;;;7.00;3.72;;;;;;;;;;5072144;28;20111;-72
2022/05/16 12:24:33;;;;;;;6.97;3.80;;;;;;;;;;5072148;28;20064;-73
2022/05/16 12:26:58;;;;;;;7.68;4.10;;;;;;;;;;5071876;28;20032;-76
2022/05/16 12:29:56;;;;;;;7.53;4.20;;;;;;;;;;5071853;28;20032;-75
2022/05/16 12:32:31;;;;;;;5.63;3.60;;;;;;;;;;5072076;28;20127;-75
2022/05/16 12:35:07;;;;;;;5.53;3.75;;;;;;;;;;5071146;28;20043;-74
2022/05/16 12:37:34;;;;;;;6.20;4.05;;;;;;;;;;5072152;28;20036;-73
2022/05/16 12:40:09;;;;;;;8.25;4.55;;;;;;;;;;5072108;28;20028;-76
2022/05/16 12:42:59;;;;;;;6.35;4.55;;;;;;;;;;5072262;28;20032;-74
2022/05/16 12:46:04;;;;;;;6.38;4.57;;;;;;;;;;5072528;28;20119;-77
2022/05/16 12:48:51;;;;;;;10.25;4.75;;;;;;;;;;5061284;28;20055;-82
2022/05/16 12:51:40;;;;;;;8.85;4.70;;;;;;;;;;5053233;28;20029;-79
2022/05/16 12:54:21;;;;;;;8.88;4.78;;;;;;;;;;5071211;28;20036;-76
2022/05/16 12:56:52;;;;;;;12.90;5.60;;;;;;;;;;5072099;28;20040;-81
2022/05/16 12:59:42;;;;;;;6.45;5.00;;;;;;;;;;5072357;28;20115;-76
2022/05/16 13:02:26;;;;;;;5.05;4.20;;;;;;;;;;5062068;28;20029;-79
2022/05/16 13:04:51;;;;;;;7.13;4.80;;;;;;;;;;5055913;28;20126;-76
2022/05/16 13:07:42;;;;;;;9.60;4.65;;;;;;;;;;5056531;28;20478;-77
2022/05/16 13:10:30;;;;;;;5.22;4.72;;;;;;;;;;5070026;28;20070;-82
2022/05/16 13:13:25;;;;;;;9.65;4.50;;;;;;;;;;5076265;28;20111;-76
2022/05/16 13:16:03;;;;;;;10.77;4.20;;;;;;;;;;5076462;28;20033;-86
2022/05/16 13:18:33;;;;;;;7.15;4.55;;;;;;;;;;5076329;28;20036;-84
2022/05/16 13:21:10;;;;;;;6.25;4.22;;;;;;;;;;5091590;28;20116;-78
2022/05/16 13:23:38;;;;;;;8.75;4.55;;;;;;;;;;5076715;28;20402;-79
2022/05/16 13:31:48;;;;;;;7.30;3.78;;;;;;;;;;5076160;28;20383;-79
2022/05/16 13:34:55;;;;;;;8.50;4.05;;;;;;;;;;5076117;28;20498;-74
2022/05/16 13:37:30;;;;;;;5.18;3.90;;;;;;;;;;5079713;28;20048;-76
2022/05/16 13:40:06;;;;;;;7.65;3.78;;;;;;;;;;5076129;28;20047;-75
2022/05/16 13:42:34;;;;;;;8.40;4.00;;;;;;;;;;5075940;28;20028;-79
2022/05/16 13:45:01;;;;;;;4.47;3.30;;;;;;;;;;5076653;28;20120;-78
2022/05/16 13:47:31;;;;;;;8.70;3.67;;;;;;;;;;5076452;28;20032;-79
2022/05/16 13:49:57;;;;;;;9.38;3.75;;;;;;;;;;5076679;28;20040;-80
2022/05/16 13:52:30;;;;;;;11.10;4.13;;;;;;;;;;5075917;28;20029;-78
2022/05/16 13:54:59;;;;;;;6.22;3.42;;;;;;;;;;5075449;28;20111;-76
2022/05/16 13:57:27;;;;;;;7.55;3.67;;;;;;;;;;5072976;28;20563;-78
2022/05/16 14:00:08;;;;;;;7.20;3.67;;;;;;;;;;5074446;28;20056;-75
2022/05/16 14:02:36;;;;;;;6.25;3.20;;;;;;;;;;5074553;28;20033;-78
2022/05/16 14:05:12;;;;;;;9.50;3.75;;;;;;;;;;5074164;28;20070;-78
2022/05/16 14:07:39;;;;;;;8.38;3.40;;;;;;;;;;5073738;28;20043;-76
2022/05/16 14:10:10;;;;;;;4.43;3.47;;;;;;;;;;5071635;28;20025;-76
2022/05/16 14:13:04;;;;;;;5.78;3.40;;;;;;;;;;5073944;28;20040;-75
2022/05/16 14:15:37;;;;;;;5.30;3.30;;;;;;;;;;5073440;28;20056;-75
2022/05/16 14:18:10;;;;;;;9.43;3.80;;;;;;;;;;5073808;28;20124;-76
2022/05/16 14:20:49;;;;;;;6.22;3.25;;;;;;;;;;5073804;28;20398;-74
2022/05/16 14:23:23;;;;;;;6.07;3.67;;;;;;;;;;5073503;28;20037;-73
2022/05/16 14:25:54;;;;;;;6.43;3.20;;;;;;;;;;5073342;28;20042;-73
2022/05/16 14:28:29;;;;;;;6.72;3.70;;;;;;;;;;5073442;28;20340;-74
2022/05/16 14:31:04;;;;;;;11.50;4.55;;;;;;;;;;5073500;28;20033;-73
2022/05/16 14:33:32;;;;;;;8.70;3.90;;;;;;;;;;5073666;28;20453;-74
2022/05/16 14:36:05;;;;;;;4.93;3.38;;;;;;;;;;5073746;28;20016;-73
2022/05/16 14:38:57;;;;;;;;;;;;;;;;;;5073440;28;20028;-74
2022/05/16 14:41:27;;;;;;;6.05;3.20;;;;;;;;;;5069880;28;20378;-74
2022/05/16 14:44:05;;;;;;;9.32;3.92;;;;;;;;;;5073489;28;20028;-76
2022/05/16 14:46:42;;;;;;;5.75;3.33;;;;;;;;;;5073463;28;20431;-78
2022/05/16 14:49:12;;;;;;;4.78;3.30;;;;;;;;;;5073632;28;20039;-77
2022/05/16 14:51:39;;;;;;;4.90;2.83;;;;;;;;;;5073261;28;20485;-77
2022/05/16 14:54:47;;;;;;;7.50;3.30;;;;;;;;;;5073358;28;20063;-75
2022/05/16 14:57:13;;;;;;;6.65;3.50;;;;;;;;;;5027605;28;1330757;-75
2022/05/16 14:59:39;;;;;;;5.32;3.33;;;;;;;;;;5074064;28;20039;-74
2022/05/16 15:05:10;;;;;;;8.48;3.20;;;;;;;;;;5031876;28;20038;-81
2022/05/16 15:07:41;;;;;;;6.30;3.80;;;;;;;;;;5031589;28;20033;-78
2022/05/16 15:10:10;;;;;;;6.68;3.53;;;;;;;;;;5052841;28;20388;-84
2022/05/16 15:12:36;;;;;;;6.55;3.90;;;;;;;;;;5073459;28;20489;-76
2022/05/16 15:15:03;;;;;;;7.40;3.55;;;;;;;;;;5073712;28;20075;-78
2022/05/16 15:17:31;;;;;;;6.47;3.75;;;;;;;;;;5073686;28;20512;-77
2022/05/16 15:19:57;;;;;;;7.38;4.03;;;;;;;;;;5073575;28;20044;-75
2022/05/16 15:22:23;;;;;;;7.60;3.88;;;;;;;;;;5073640;28;20414;-76
2022/05/16 15:24:55;;;;;;;5.85;3.80;;;;;;;;;;5073659;28;20063;-78
2022/05/16 15:27:23;;;;;;;6.95;3.72;;;;;;;;;;5072458;28;20486;-79
2022/05/16 15:29:50;;;;;;;6.38;3.38;;;;;;;;;;5073587;28;20360;-75
2022/05/16 15:32:16;;;;;;;4.38;3.35;;;;;;;;;;5073421;28;20056;-77
2022/05/16 15:34:43;;;;;;;6.43;3.60;;;;;;;;;;5073562;28;20063;-78
2022/05/16 15:37:13;;;;;;;5.55;3.60;;;;;;;;;;5073368;28;20490;-77
2022/05/16 15:39:39;;;;;;;5.07;3.47;;;;;;;;;;5073235;28;20112;-77
2022/05/16 15:42:05;;;;;;;11.32;3.60;;;;;;;;;;5073024;28;20044;-78
2022/05/16 15:44:32;;;;;;;6.88;3.42;;;;;;;;;;5073466;28;20016;-75
2022/05/16 15:46:59;;;;;;;9.48;4.00;;;;;;;;;;5072679;28;20055;-78